sensor_id;sensor_type;location;lat;lon;timestamp;temperature;humidity
18577;DHT22;9418;52.694;13.294;2023-04-03T00:01:35;-0.20;99.90
18577;DHT22;9418;52.694;13.294;2023-04-03T00:04:03;-0.20;99.90
18577;DHT22;9418;52.694;13.294;2023-04-03T00:06:30;-0.30;99.90
18577;DHT22;9418;52.694;13.294;2023-04-03T00:08:56;-0.30;99.90
18577;DHT22;9418;52.694;13.294;2023-04-03T00:11:23;-0.30;99.90
18577;DHT22;9418;52.694;13.294;2023-04-03T00:13:50;-0.30;99.90
18577;DHT22;9418;52.694;13.294;2023-04-03T00:16:17;-0.30;99.90
18577;DHT22;9418;52.694;13.294;2023-04-03T00:18:45;-0.40;99.90
18577;DHT22;9418;52.694;13.294;2023-04-03T00:21:12;-0.40;99.90
18577;DHT22;9418;52.694;13.294;2023-04-03T00:23:39;-0.40;99.90
18577;DHT22;9418;52.694;13.294;2023-04-03T00:26:07;-0.40;99.90
18577;DHT22;9418;52.694;13.294;2023-04-03T00:28:33;-0.40;99.90
18577;DHT22;9418;52.694;13.294;2023-04-03T00:31:00;-0.40;99.90
18577;DHT22;9418;52.694;13.294;2023-04-03T00:33:27;-0.40;99.90
18577;DHT22;9418;52.694;13.294;2023-04-03T00:35:55;-0.50;99.90
18577;DHT22;9418;52.694;13.294;2023-04-03T00:38:21;-0.50;99.90
18577;DHT22;9418;52.694;13.294;2023-04-03T00:40:48;-0.50;99.90
18577;DHT22;9418;52.694;13.294;2023-04-03T00:43:19;-0.50;99.90
18577;DHT22;9418;52.694;13.294;2023-04-03T00:45:47;-0.50;99.90
18577;DHT22;9418;52.694;13.294;2023-04-03T00:48:17;-0.50;99.90
18577;DHT22;9418;52.694;13.294;2023-04-03T00:50:44;-0.50;99.90
18577;DHT22;9418;52.694;13.294;2023-04-03T00:53:15;-0.60;99.90
18577;DHT22;9418;52.694;13.294;2023-04-03T00:55:43;-0.50;99.90
18577;DHT22;9418;52.694;13.294;2023-04-03T00:58:10;-0.60;99.90
18577;DHT22;9418;52.694;13.294;2023-04-03T01:00:39;-0.60;99.90
18577;DHT22;9418;52.694;13.294;2023-04-03T01:03:06;-0.60;99.90
18577;DHT22;9418;52.694;13.294;2023-04-03T01:05:33;-0.60;99.90
18577;DHT22;9418;52.694;13.294;2023-04-03T01:08:00;-0.70;99.90
18577;DHT22;9418;52.694;13.294;2023-04-03T01:10:28;-0.80;99.90
18577;DHT22;9418;52.694;13.294;2023-04-03T01:12:55;-0.80;99.90
18577;DHT22;9418;52.694;13.294;2023-04-03T01:15:24;-0.80;99.90
18577;DHT22;9418;52.694;13.294;2023-04-03T01:17:53;-0.80;99.90
18577;DHT22;9418;52.694;13.294;2023-04-03T01:20:44;-0.80;99.90
18577;DHT22;9418;52.694;13.294;2023-04-03T01:23:40;-0.90;99.90
18577;DHT22;9418;52.694;13.294;2023-04-03T01:26:12;-0.90;99.90
18577;DHT22;9418;52.694;13.294;2023-04-03T01:28:38;-0.90;1.40
18577;DHT22;9418;52.694;13.294;2023-04-03T01:31:12;-0.90;99.90
18577;DHT22;9418;52.694;13.294;2023-04-03T01:33:42;-0.90;99.90
18577;DHT22;9418;52.694;13.294;2023-04-03T01:36:09;-1.00;99.90
18577;DHT22;9418;52.694;13.294;2023-04-03T01:38:36;-1.00;99.90
18577;DHT22;9418;52.694;13.294;2023-04-03T01:41:02;-1.00;99.90
18577;DHT22;9418;52.694;13.294;2023-04-03T01:43:29;-1.00;99.90
18577;DHT22;9418;52.694;13.294;2023-04-03T01:45:55;-1.00;99.90
18577;DHT22;9418;52.694;13.294;2023-04-03T01:48:22;-1.10;99.90
18577;DHT22;9418;52.694;13.294;2023-04-03T01:50:50;-1.10;99.90
18577;DHT22;9418;52.694;13.294;2023-04-03T01:53:17;-1.10;99.90
18577;DHT22;9418;52.694;13.294;2023-04-03T01:55:43;-1.10;99.90
18577;DHT22;9418;52.694;13.294;2023-04-03T01:58:10;-1.10;99.90
18577;DHT22;9418;52.694;13.294;2023-04-03T02:00:37;-1.10;99.90
18577;DHT22;9418;52.694;13.294;2023-04-03T02:03:03;-1.10;99.90
18577;DHT22;9418;52.694;13.294;2023-04-03T02:05:30;-1.20;99.90
18577;DHT22;9418;52.694;13.294;2023-04-03T02:07:58;-1.30;99.90
18577;DHT22;9418;52.694;13.294;2023-04-03T02:10:25;-1.30;99.90
18577;DHT22;9418;52.694;13.294;2023-04-03T02:12:52;-1.40;99.90
18577;DHT22;9418;52.694;13.294;2023-04-03T02:15:18;-1.40;99.90
18577;DHT22;9418;52.694;13.294;2023-04-03T02:17:45;-1.40;83.00
18577;DHT22;9418;52.694;13.294;2023-04-03T02:20:11;-1.40;86.80
18577;DHT22;9418;52.694;13.294;2023-04-03T02:22:38;-1.40;86.20
18577;DHT22;9418;52.694;13.294;2023-04-03T02:25:07;-1.30;64.70
18577;DHT22;9418;52.694;13.294;2023-04-03T02:27:34;-1.40;73.00
18577;DHT22;9418;52.694;13.294;2023-04-03T02:30:00;-1.40;70.00
18577;DHT22;9418;52.694;13.294;2023-04-03T02:32:27;-1.30;74.10
18577;DHT22;9418;52.694;13.294;2023-04-03T02:34:54;-1.40;78.60
18577;DHT22;9418;52.694;13.294;2023-04-03T02:37:20;-1.40;82.30
18577;DHT22;9418;52.694;13.294;2023-04-03T02:39:47;-1.30;78.60
18577;DHT22;9418;52.694;13.294;2023-04-03T02:42:15;-1.30;80.90
18577;DHT22;9418;52.694;13.294;2023-04-03T02:44:41;-1.40;81.90
18577;DHT22;9418;52.694;13.294;2023-04-03T02:47:08;-1.30;84.00
18577;DHT22;9418;52.694;13.294;2023-04-03T02:49:34;-1.30;87.90
18577;DHT22;9418;52.694;13.294;2023-04-03T02:52:01;-1.30;85.10
18577;DHT22;9418;52.694;13.294;2023-04-03T02:54:28;-1.30;89.20
18577;DHT22;9418;52.694;13.294;2023-04-03T02:56:56;-1.30;90.10
18577;DHT22;9418;52.694;13.294;2023-04-03T02:59:24;-1.30;94.80
18577;DHT22;9418;52.694;13.294;2023-04-03T03:01:51;-1.30;95.50
18577;DHT22;9418;52.694;13.294;2023-04-03T03:04:18;-1.30;87.70
18577;DHT22;9418;52.694;13.294;2023-04-03T03:06:44;-1.30;91.60
18577;DHT22;9418;52.694;13.294;2023-04-03T03:09:12;-1.30;95.20
18577;DHT22;9418;52.694;13.294;2023-04-03T03:11:39;-1.30;97.20
18577;DHT22;9418;52.694;13.294;2023-04-03T03:14:06;-1.30;95.10
18577;DHT22;9418;52.694;13.294;2023-04-03T03:16:34;-1.30;89.70
18577;DHT22;9418;52.694;13.294;2023-04-03T03:19:00;-1.30;92.50
18577;DHT22;9418;52.694;13.294;2023-04-03T03:21:27;-1.30;91.40
18577;DHT22;9418;52.694;13.294;2023-04-03T03:23:54;-1.30;92.10
18577;DHT22;9418;52.694;13.294;2023-04-03T03:26:20;-1.40;92.10
18577;DHT22;9418;52.694;13.294;2023-04-03T03:28:47;-1.40;92.20
18577;DHT22;9418;52.694;13.294;2023-04-03T03:31:13;-1.30;81.20
18577;DHT22;9418;52.694;13.294;2023-04-03T03:33:41;-1.40;88.10
18577;DHT22;9418;52.694;13.294;2023-04-03T03:36:08;-1.30;91.60
18577;DHT22;9418;52.694;13.294;2023-04-03T03:38:35;-1.30;94.30
18577;DHT22;9418;52.694;13.294;2023-04-03T03:41:02;-1.40;93.30
18577;DHT22;9418;52.694;13.294;2023-04-03T03:43:29;-1.40;94.20
18577;DHT22;9418;52.694;13.294;2023-04-03T03:45:55;-1.40;87.30
18577;DHT22;9418;52.694;13.294;2023-04-03T03:48:23;-1.40;87.40
18577;DHT22;9418;52.694;13.294;2023-04-03T03:50:51;-1.40;88.00
18577;DHT22;9418;52.694;13.294;2023-04-03T03:53:18;-1.40;90.40
18577;DHT22;9418;52.694;13.294;2023-04-03T03:55:44;-1.50;91.10
18577;DHT22;9418;52.694;13.294;2023-04-03T03:58:11;-1.50;90.20
18577;DHT22;9418;52.694;13.294;2023-04-03T04:00:37;-1.60;88.60
18577;DHT22;9418;52.694;13.294;2023-04-03T04:03:04;-1.50;78.80
18577;DHT22;9418;52.694;13.294;2023-04-03T04:05:31;-1.50;79.70
18577;DHT22;9418;52.694;13.294;2023-04-03T04:07:59;-1.60;85.30
18577;DHT22;9418;52.694;13.294;2023-04-03T04:10:25;-1.50;77.10
18577;DHT22;9418;52.694;13.294;2023-04-03T04:12:52;-1.60;73.20
18577;DHT22;9418;52.694;13.294;2023-04-03T04:15:19;-1.60;70.60
18577;DHT22;9418;52.694;13.294;2023-04-03T04:17:47;-1.60;59.70
18577;DHT22;9418;52.694;13.294;2023-04-03T04:20:13;-1.60;61.40
18577;DHT22;9418;52.694;13.294;2023-04-03T04:22:40;-1.50;46.80
18577;DHT22;9418;52.694;13.294;2023-04-03T04:25:08;-1.50;50.20
18577;DHT22;9418;52.694;13.294;2023-04-03T04:27:35;-1.60;55.20
18577;DHT22;9418;52.694;13.294;2023-04-03T04:30:02;-1.60;51.90
18577;DHT22;9418;52.694;13.294;2023-04-03T04:32:29;-1.60;45.60
18577;DHT22;9418;52.694;13.294;2023-04-03T04:34:56;-1.60;43.20
18577;DHT22;9418;52.694;13.294;2023-04-03T04:37:23;-1.60;30.90
18577;DHT22;9418;52.694;13.294;2023-04-03T04:39:49;-1.60;30.80
18577;DHT22;9418;52.694;13.294;2023-04-03T04:42:17;-1.60;30.00
18577;DHT22;9418;52.694;13.294;2023-04-03T04:44:44;-1.60;33.60
18577;DHT22;9418;52.694;13.294;2023-04-03T04:47:10;-1.60;33.80
18577;DHT22;9418;52.694;13.294;2023-04-03T04:49:37;-1.60;34.60
18577;DHT22;9418;52.694;13.294;2023-04-03T04:52:04;-1.60;29.80
18577;DHT22;9418;52.694;13.294;2023-04-03T04:54:31;-1.60;34.40
18577;DHT22;9418;52.694;13.294;2023-04-03T04:56:57;-1.50;29.40
18577;DHT22;9418;52.694;13.294;2023-04-03T04:59:25;-1.50;29.90
18577;DHT22;9418;52.694;13.294;2023-04-03T05:01:52;-1.50;28.10
18577;DHT22;9418;52.694;13.294;2023-04-03T05:04:18;-1.50;25.70
18577;DHT22;9418;52.694;13.294;2023-04-03T05:06:45;-1.50;28.70
18577;DHT22;9418;52.694;13.294;2023-04-03T05:09:12;-1.50;27.10
18577;DHT22;9418;52.694;13.294;2023-04-03T05:11:38;-1.50;27.00
18577;DHT22;9418;52.694;13.294;2023-04-03T05:14:05;-1.40;27.40
18577;DHT22;9418;52.694;13.294;2023-04-03T05:16:33;-1.40;28.30
18577;DHT22;9418;52.694;13.294;2023-04-03T05:19:00;-1.40;28.30
18577;DHT22;9418;52.694;13.294;2023-04-03T05:21:27;-1.30;28.10
18577;DHT22;9418;52.694;13.294;2023-04-03T05:23:57;-1.30;28.00
18577;DHT22;9418;52.694;13.294;2023-04-03T05:26:24;-1.20;29.70
18577;DHT22;9418;52.694;13.294;2023-04-03T05:28:51;-1.10;32.50
18577;DHT22;9418;52.694;13.294;2023-04-03T05:31:18;-1.00;34.40
18577;DHT22;9418;52.694;13.294;2023-04-03T05:33:46;-0.90;38.60
18577;DHT22;9418;52.694;13.294;2023-04-03T05:36:13;-0.90;41.70
18577;DHT22;9418;52.694;13.294;2023-04-03T05:38:40;-0.80;49.20
18577;DHT22;9418;52.694;13.294;2023-04-03T05:41:06;-0.60;47.10
18577;DHT22;9418;52.694;13.294;2023-04-03T05:43:33;-0.60;51.60
18577;DHT22;9418;52.694;13.294;2023-04-03T05:46:00;-0.40;57.70
18577;DHT22;9418;52.694;13.294;2023-04-03T05:48:26;-0.30;66.50
18577;DHT22;9418;52.694;13.294;2023-04-03T05:50:54;-0.20;74.80
18577;DHT22;9418;52.694;13.294;2023-04-03T05:53:23;-0.10;85.90
18577;DHT22;9418;52.694;13.294;2023-04-03T05:55:51;-0.10;95.70
18577;DHT22;9418;52.694;13.294;2023-04-03T05:58:19;0.00;99.90
18577;DHT22;9418;52.694;13.294;2023-04-03T06:00:45;0.10;99.90
18577;DHT22;9418;52.694;13.294;2023-04-03T06:03:12;0.30;99.90
18577;DHT22;9418;52.694;13.294;2023-04-03T06:05:39;0.60;99.90
18577;DHT22;9418;52.694;13.294;2023-04-03T06:08:07;1.00;99.90
18577;DHT22;9418;52.694;13.294;2023-04-03T06:10:34;1.40;99.90
18577;DHT22;9418;52.694;13.294;2023-04-03T06:13:01;1.60;99.90
18577;DHT22;9418;52.694;13.294;2023-04-03T06:15:28;1.60;37.80
18577;DHT22;9418;52.694;13.294;2023-04-03T06:17:54;1.90;49.80
18577;DHT22;9418;52.694;13.294;2023-04-03T06:20:21;2.10;59.60
18577;DHT22;9418;52.694;13.294;2023-04-03T06:22:48;2.30;71.20
18577;DHT22;9418;52.694;13.294;2023-04-03T06:25:17;2.40;79.00
18577;DHT22;9418;52.694;13.294;2023-04-03T06:27:44;2.20;79.70
18577;DHT22;9418;52.694;13.294;2023-04-03T06:30:11;2.20;81.60
18577;DHT22;9418;52.694;13.294;2023-04-03T06:32:38;2.30;87.00
18577;DHT22;9418;52.694;13.294;2023-04-03T06:35:05;2.40;94.70
18577;DHT22;9418;52.694;13.294;2023-04-03T06:37:32;2.60;96.60
18577;DHT22;9418;52.694;13.294;2023-04-03T06:39:59;2.90;99.90
18577;DHT22;9418;52.694;13.294;2023-04-03T06:42:28;3.00;99.90
18577;DHT22;9418;52.694;13.294;2023-04-03T06:44:54;3.20;99.90
18577;DHT22;9418;52.694;13.294;2023-04-03T06:47:21;3.20;99.90
18577;DHT22;9418;52.694;13.294;2023-04-03T06:49:48;3.40;99.90
18577;DHT22;9418;52.694;13.294;2023-04-03T06:52:14;3.20;99.90
18577;DHT22;9418;52.694;13.294;2023-04-03T06:54:41;3.10;99.90
18577;DHT22;9418;52.694;13.294;2023-04-03T06:57:08;2.90;99.90
18577;DHT22;9418;52.694;13.294;2023-04-03T06:59:36;2.80;99.90
18577;DHT22;9418;52.694;13.294;2023-04-03T07:02:02;2.90;99.90
18577;DHT22;9418;52.694;13.294;2023-04-03T07:04:29;3.00;99.90
18577;DHT22;9418;52.694;13.294;2023-04-03T07:06:56;3.00;99.90
18577;DHT22;9418;52.694;13.294;2023-04-03T07:09:22;3.10;99.90
18577;DHT22;9418;52.694;13.294;2023-04-03T07:11:49;3.20;99.90
18577;DHT22;9418;52.694;13.294;2023-04-03T07:14:16;3.30;99.90
18577;DHT22;9418;52.694;13.294;2023-04-03T07:16:44;3.40;99.90
18577;DHT22;9418;52.694;13.294;2023-04-03T07:19:10;3.60;99.90
18577;DHT22;9418;52.694;13.294;2023-04-03T07:21:37;3.60;99.90
18577;DHT22;9418;52.694;13.294;2023-04-03T07:24:04;3.70;99.90
18577;DHT22;9418;52.694;13.294;2023-04-03T07:26:31;3.90;99.90
18577;DHT22;9418;52.694;13.294;2023-04-03T07:28:57;4.20;99.90
18577;DHT22;9418;52.694;13.294;2023-04-03T07:31:25;4.20;99.90
18577;DHT22;9418;52.694;13.294;2023-04-03T07:33:53;4.50;99.90
18577;DHT22;9418;52.694;13.294;2023-04-03T07:36:21;4.20;99.90
18577;DHT22;9418;52.694;13.294;2023-04-03T07:38:48;4.40;99.90
18577;DHT22;9418;52.694;13.294;2023-04-03T07:41:17;4.40;99.90
18577;DHT22;9418;52.694;13.294;2023-04-03T07:43:45;4.60;99.90
18577;DHT22;9418;52.694;13.294;2023-04-03T07:46:15;4.40;99.90
18577;DHT22;9418;52.694;13.294;2023-04-03T07:48:42;4.40;99.90
18577;DHT22;9418;52.694;13.294;2023-04-03T07:51:10;4.70;99.90
18577;DHT22;9418;52.694;13.294;2023-04-03T07:53:37;4.80;99.90
18577;DHT22;9418;52.694;13.294;2023-04-03T07:56:04;4.80;99.90
18577;DHT22;9418;52.694;13.294;2023-04-03T07:58:30;4.50;99.90
18577;DHT22;9418;52.694;13.294;2023-04-03T08:00:57;4.00;99.90
18577;DHT22;9418;52.694;13.294;2023-04-03T08:03:24;3.90;99.90
18577;DHT22;9418;52.694;13.294;2023-04-03T08:05:51;4.10;99.90
18577;DHT22;9418;52.694;13.294;2023-04-03T08:08:22;4.60;99.90
18577;DHT22;9418;52.694;13.294;2023-04-03T08:10:49;5.30;99.90
18577;DHT22;9418;52.694;13.294;2023-04-03T08:13:16;5.90;99.90
18577;DHT22;9418;52.694;13.294;2023-04-03T08:15:43;6.00;99.90
18577;DHT22;9418;52.694;13.294;2023-04-03T08:18:09;6.40;99.90
18577;DHT22;9418;52.694;13.294;2023-04-03T08:20:37;5.90;99.90
18577;DHT22;9418;52.694;13.294;2023-04-03T08:23:04;5.50;99.90
18577;DHT22;9418;52.694;13.294;2023-04-03T08:25:32;4.90;99.90
18577;DHT22;9418;52.694;13.294;2023-04-03T08:27:59;4.70;99.90
18577;DHT22;9418;52.694;13.294;2023-04-03T08:30:27;4.90;99.90
18577;DHT22;9418;52.694;13.294;2023-04-03T08:32:54;4.90;99.90
18577;DHT22;9418;52.694;13.294;2023-04-03T08:35:20;4.80;99.90
18577;DHT22;9418;52.694;13.294;2023-04-03T08:37:47;4.80;99.90
18577;DHT22;9418;52.694;13.294;2023-04-03T08:40:15;4.90;99.90
18577;DHT22;9418;52.694;13.294;2023-04-03T08:42:51;4.60;99.90
18577;DHT22;9418;52.694;13.294;2023-04-03T08:45:26;4.60;99.90
18577;DHT22;9418;52.694;13.294;2023-04-03T08:48:00;4.60;99.90
18577;DHT22;9418;52.694;13.294;2023-04-03T08:50:35;4.70;99.90
18577;DHT22;9418;52.694;13.294;2023-04-03T08:53:03;4.70;99.90
18577;DHT22;9418;52.694;13.294;2023-04-03T08:55:34;4.70;99.90
18577;DHT22;9418;52.694;13.294;2023-04-03T08:58:04;4.70;99.90
18577;DHT22;9418;52.694;13.294;2023-04-03T09:00:37;4.90;99.90
18577;DHT22;9418;52.694;13.294;2023-04-03T09:03:12;5.10;99.90
18577;DHT22;9418;52.694;13.294;2023-04-03T09:05:41;5.90;99.90
18577;DHT22;9418;52.694;13.294;2023-04-03T09:08:18;5.60;99.90
18577;DHT22;9418;52.694;13.294;2023-04-03T09:10:49;5.30;99.90
18577;DHT22;9418;52.694;13.294;2023-04-03T09:13:24;5.00;99.90
18577;DHT22;9418;52.694;13.294;2023-04-03T09:15:53;5.20;99.90
18577;DHT22;9418;52.694;13.294;2023-04-03T09:18:24;5.60;99.90
18577;DHT22;9418;52.694;13.294;2023-04-03T09:20:57;6.50;99.90
18577;DHT22;9418;52.694;13.294;2023-04-03T09:23:31;5.60;99.90
18577;DHT22;9418;52.694;13.294;2023-04-03T09:26:02;5.80;99.90
18577;DHT22;9418;52.694;13.294;2023-04-03T09:28:37;6.00;99.90
18577;DHT22;9418;52.694;13.294;2023-04-03T09:31:14;6.00;99.90
18577;DHT22;9418;52.694;13.294;2023-04-03T09:33:42;6.00;99.90
18577;DHT22;9418;52.694;13.294;2023-04-03T09:36:09;6.00;99.90
18577;DHT22;9418;52.694;13.294;2023-04-03T09:38:36;5.80;99.90
18577;DHT22;9418;52.694;13.294;2023-04-03T09:41:05;6.10;99.90
18577;DHT22;9418;52.694;13.294;2023-04-03T09:43:34;6.00;99.90
18577;DHT22;9418;52.694;13.294;2023-04-03T09:46:28;6.20;99.90
18577;DHT22;9418;52.694;13.294;2023-04-03T09:48:58;5.80;99.90
18577;DHT22;9418;52.694;13.294;2023-04-03T09:51:26;6.40;99.90
18577;DHT22;9418;52.694;13.294;2023-04-03T09:53:54;7.50;99.90
18577;DHT22;9418;52.694;13.294;2023-04-03T09:56:23;7.30;99.90
18577;DHT22;9418;52.694;13.294;2023-04-03T09:59:08;6.90;99.90
18577;DHT22;9418;52.694;13.294;2023-04-03T10:01:36;6.70;99.90
18577;DHT22;9418;52.694;13.294;2023-04-03T10:04:06;6.50;99.90
18577;DHT22;9418;52.694;13.294;2023-04-03T10:06:35;6.30;99.90
18577;DHT22;9418;52.694;13.294;2023-04-03T10:09:04;7.20;99.90
18577;DHT22;9418;52.694;13.294;2023-04-03T10:11:31;9.10;99.90
18577;DHT22;9418;52.694;13.294;2023-04-03T10:14:00;9.60;99.90
18577;DHT22;9418;52.694;13.294;2023-04-03T10:16:38;9.90;99.90
18577;DHT22;9418;52.694;13.294;2023-04-03T10:19:21;10.30;99.90
18577;DHT22;9418;52.694;13.294;2023-04-03T10:21:57;10.60;99.90
18577;DHT22;9418;52.694;13.294;2023-04-03T10:24:28;9.40;99.90
18577;DHT22;9418;52.694;13.294;2023-04-03T10:26:59;8.00;99.90
18577;DHT22;9418;52.694;13.294;2023-04-03T10:29:38;7.00;99.90
18577;DHT22;9418;52.694;13.294;2023-04-03T10:32:31;6.50;99.90
18577;DHT22;9418;52.694;13.294;2023-04-03T10:35:10;6.20;99.90
18577;DHT22;9418;52.694;13.294;2023-04-03T10:37:51;6.70;99.90
18577;DHT22;9418;52.694;13.294;2023-04-03T10:40:28;6.90;99.90
18577;DHT22;9418;52.694;13.294;2023-04-03T10:43:02;7.40;99.90
18577;DHT22;9418;52.694;13.294;2023-04-03T10:45:41;7.30;99.90
18577;DHT22;9418;52.694;13.294;2023-04-03T10:48:18;7.50;99.90
18577;DHT22;9418;52.694;13.294;2023-04-03T10:50:52;7.40;99.90
18577;DHT22;9418;52.694;13.294;2023-04-03T10:53:29;7.10;99.90
18577;DHT22;9418;52.694;13.294;2023-04-03T10:56:03;7.10;99.90
18577;DHT22;9418;52.694;13.294;2023-04-03T10:58:34;7.50;99.90
18577;DHT22;9418;52.694;13.294;2023-04-03T11:01:07;7.80;99.90
18577;DHT22;9418;52.694;13.294;2023-04-03T11:03:36;8.00;99.90
18577;DHT22;9418;52.694;13.294;2023-04-03T11:06:08;8.30;99.90
18577;DHT22;9418;52.694;13.294;2023-04-03T11:08:39;7.50;99.90
18577;DHT22;9418;52.694;13.294;2023-04-03T11:11:13;6.90;99.90
18577;DHT22;9418;52.694;13.294;2023-04-03T11:13:43;6.80;99.90
18577;DHT22;9418;52.694;13.294;2023-04-03T11:16:17;6.90;99.90
18577;DHT22;9418;52.694;13.294;2023-04-03T11:18:49;6.70;99.90
18577;DHT22;9418;52.694;13.294;2023-04-03T11:21:23;6.40;99.90
18577;DHT22;9418;52.694;13.294;2023-04-03T11:23:51;6.40;99.90
18577;DHT22;9418;52.694;13.294;2023-04-03T11:26:22;6.40;99.90
18577;DHT22;9418;52.694;13.294;2023-04-03T11:28:52;6.50;99.90
18577;DHT22;9418;52.694;13.294;2023-04-03T11:31:31;6.40;99.90
18577;DHT22;9418;52.694;13.294;2023-04-03T11:34:11;6.40;99.90
18577;DHT22;9418;52.694;13.294;2023-04-03T11:36:44;6.40;99.90
18577;DHT22;9418;52.694;13.294;2023-04-03T11:39:20;6.40;99.90
18577;DHT22;9418;52.694;13.294;2023-04-03T11:41:48;6.40;99.90
18577;DHT22;9418;52.694;13.294;2023-04-03T11:44:36;6.50;99.90
18577;DHT22;9418;52.694;13.294;2023-04-03T11:47:05;6.50;99.90
18577;DHT22;9418;52.694;13.294;2023-04-03T11:49:56;6.30;99.90
18577;DHT22;9418;52.694;13.294;2023-04-03T11:52:55;6.40;99.90
18577;DHT22;9418;52.694;13.294;2023-04-03T11:58:26;6.00;99.90
18577;DHT22;9418;52.694;13.294;2023-04-03T12:01:04;5.80;99.90
18577;DHT22;9418;52.694;13.294;2023-04-03T12:07:00;6.00;99.90
18577;DHT22;9418;52.694;13.294;2023-04-03T12:09:33;6.00;99.90
18577;DHT22;9418;52.694;13.294;2023-04-03T12:12:01;5.70;99.90
18577;DHT22;9418;52.694;13.294;2023-04-03T12:14:47;5.90;99.90
18577;DHT22;9418;52.694;13.294;2023-04-03T12:17:21;6.10;99.90
18577;DHT22;9418;52.694;13.294;2023-04-03T12:19:48;6.30;99.90
18577;DHT22;9418;52.694;13.294;2023-04-03T12:22:18;6.20;99.90
18577;DHT22;9418;52.694;13.294;2023-04-03T12:24:47;6.40;99.90
18577;DHT22;9418;52.694;13.294;2023-04-03T12:27:33;6.40;99.90
18577;DHT22;9418;52.694;13.294;2023-04-03T12:30:12;6.40;99.90
18577;DHT22;9418;52.694;13.294;2023-04-03T12:33:02;6.30;99.90
18577;DHT22;9418;52.694;13.294;2023-04-03T12:35:36;6.20;99.90
18577;DHT22;9418;52.694;13.294;2023-04-03T12:38:20;6.20;99.90
18577;DHT22;9418;52.694;13.294;2023-04-03T12:40:54;6.20;99.90
18577;DHT22;9418;52.694;13.294;2023-04-03T12:43:34;6.40;99.90
18577;DHT22;9418;52.694;13.294;2023-04-03T12:46:04;6.60;99.90
18577;DHT22;9418;52.694;13.294;2023-04-03T12:48:39;6.80;99.90
18577;DHT22;9418;52.694;13.294;2023-04-03T12:51:14;6.50;99.90
18577;DHT22;9418;52.694;13.294;2023-04-03T12:53:44;6.70;99.90
18577;DHT22;9418;52.694;13.294;2023-04-03T12:56:22;6.50;99.90
18577;DHT22;9418;52.694;13.294;2023-04-03T12:58:52;6.50;99.90
18577;DHT22;9418;52.694;13.294;2023-04-03T13:01:21;6.60;99.90
18577;DHT22;9418;52.694;13.294;2023-04-03T13:03:51;6.50;99.90
18577;DHT22;9418;52.694;13.294;2023-04-03T13:06:21;6.40;99.90
18577;DHT22;9418;52.694;13.294;2023-04-03T13:08:51;6.20;99.90
18577;DHT22;9418;52.694;13.294;2023-04-03T13:11:19;6.10;99.90
18577;DHT22;9418;52.694;13.294;2023-04-03T13:13:55;5.90;99.90
18577;DHT22;9418;52.694;13.294;2023-04-03T13:16:22;5.80;99.90
18577;DHT22;9418;52.694;13.294;2023-04-03T13:18:51;5.60;99.90
18577;DHT22;9418;52.694;13.294;2023-04-03T13:21:20;5.80;99.90
18577;DHT22;9418;52.694;13.294;2023-04-03T13:23:51;5.70;99.90
18577;DHT22;9418;52.694;13.294;2023-04-03T13:26:20;5.50;99.90
18577;DHT22;9418;52.694;13.294;2023-04-03T13:28:48;5.60;99.90
18577;DHT22;9418;52.694;13.294;2023-04-03T13:31:20;5.60;99.90
18577;DHT22;9418;52.694;13.294;2023-04-03T13:33:55;5.70;99.90
18577;DHT22;9418;52.694;13.294;2023-04-03T13:36:23;5.80;99.90
18577;DHT22;9418;52.694;13.294;2023-04-03T13:39:00;5.80;99.90
18577;DHT22;9418;52.694;13.294;2023-04-03T13:41:30;5.90;99.90
18577;DHT22;9418;52.694;13.294;2023-04-03T13:44:17;5.70;99.90
18577;DHT22;9418;52.694;13.294;2023-04-03T13:46:44;5.80;99.90
18577;DHT22;9418;52.694;13.294;2023-04-03T13:49:19;5.90;99.90
18577;DHT22;9418;52.694;13.294;2023-04-03T13:51:46;6.00;99.90
18577;DHT22;9418;52.694;13.294;2023-04-03T13:54:18;5.90;99.90
18577;DHT22;9418;52.694;13.294;2023-04-03T13:56:53;5.70;99.90
18577;DHT22;9418;52.694;13.294;2023-04-03T13:59:23;5.60;99.90
18577;DHT22;9418;52.694;13.294;2023-04-03T14:01:53;5.40;99.90
18577;DHT22;9418;52.694;13.294;2023-04-03T14:04:22;5.40;99.90
18577;DHT22;9418;52.694;13.294;2023-04-03T14:06:50;5.30;99.90
18577;DHT22;9418;52.694;13.294;2023-04-03T14:09:20;5.20;99.90
18577;DHT22;9418;52.694;13.294;2023-04-03T14:11:48;5.30;99.90
18577;DHT22;9418;52.694;13.294;2023-04-03T14:14:18;5.20;99.90
18577;DHT22;9418;52.694;13.294;2023-04-03T14:16:47;5.40;99.90
18577;DHT22;9418;52.694;13.294;2023-04-03T14:19:19;5.50;99.90
18577;DHT22;9418;52.694;13.294;2023-04-03T14:21:47;5.60;99.90
18577;DHT22;9418;52.694;13.294;2023-04-03T14:24:13;5.50;99.90
18577;DHT22;9418;52.694;13.294;2023-04-03T14:26:43;5.60;99.90
18577;DHT22;9418;52.694;13.294;2023-04-03T14:29:11;6.20;99.90
18577;DHT22;9418;52.694;13.294;2023-04-03T14:31:39;6.70;99.90
18577;DHT22;9418;52.694;13.294;2023-04-03T14:34:06;6.70;99.90
18577;DHT22;9418;52.694;13.294;2023-04-03T14:36:33;6.80;99.90
18577;DHT22;9418;52.694;13.294;2023-04-03T14:39:00;6.40;99.90
18577;DHT22;9418;52.694;13.294;2023-04-03T14:41:27;6.10;99.90
18577;DHT22;9418;52.694;13.294;2023-04-03T14:43:55;6.10;99.90
18577;DHT22;9418;52.694;13.294;2023-04-03T14:46:28;5.80;99.90
18577;DHT22;9418;52.694;13.294;2023-04-03T14:48:55;5.60;99.90
18577;DHT22;9418;52.694;13.294;2023-04-03T14:51:22;5.50;99.90
18577;DHT22;9418;52.694;13.294;2023-04-03T14:53:48;5.50;99.90
18577;DHT22;9418;52.694;13.294;2023-04-03T14:56:18;5.40;99.90
18577;DHT22;9418;52.694;13.294;2023-04-03T14:58:47;5.20;99.90
18577;DHT22;9418;52.694;13.294;2023-04-03T15:01:17;5.10;99.90
18577;DHT22;9418;52.694;13.294;2023-04-03T15:03:44;5.10;99.90
18577;DHT22;9418;52.694;13.294;2023-04-03T15:06:12;5.10;99.90
18577;DHT22;9418;52.694;13.294;2023-04-03T15:08:39;5.00;99.90
18577;DHT22;9418;52.694;13.294;2023-04-03T15:11:07;5.00;99.90
18577;DHT22;9418;52.694;13.294;2023-04-03T15:13:34;4.90;99.90
18577;DHT22;9418;52.694;13.294;2023-04-03T15:16:01;4.80;99.90
18577;DHT22;9418;52.694;13.294;2023-04-03T15:18:32;4.70;99.90
18577;DHT22;9418;52.694;13.294;2023-04-03T15:21:01;4.60;99.90
18577;DHT22;9418;52.694;13.294;2023-04-03T15:23:28;4.60;99.90
18577;DHT22;9418;52.694;13.294;2023-04-03T15:25:55;4.60;99.90
18577;DHT22;9418;52.694;13.294;2023-04-03T15:28:25;4.50;99.90
18577;DHT22;9418;52.694;13.294;2023-04-03T15:30:53;4.60;99.90
18577;DHT22;9418;52.694;13.294;2023-04-03T15:33:20;4.70;99.90
18577;DHT22;9418;52.694;13.294;2023-04-03T15:35:48;4.70;99.90
18577;DHT22;9418;52.694;13.294;2023-04-03T15:38:15;4.60;99.90
18577;DHT22;9418;52.694;13.294;2023-04-03T15:40:41;4.70;99.90
18577;DHT22;9418;52.694;13.294;2023-04-03T15:43:09;4.70;99.90
18577;DHT22;9418;52.694;13.294;2023-04-03T15:45:36;4.80;99.90
18577;DHT22;9418;52.694;13.294;2023-04-03T15:48:04;4.80;99.90
18577;DHT22;9418;52.694;13.294;2023-04-03T15:50:31;4.80;99.90
18577;DHT22;9418;52.694;13.294;2023-04-03T15:53:00;4.80;99.90
18577;DHT22;9418;52.694;13.294;2023-04-03T15:55:29;4.60;99.90
18577;DHT22;9418;52.694;13.294;2023-04-03T15:57:57;4.70;99.90
18577;DHT22;9418;52.694;13.294;2023-04-03T16:00:25;4.70;99.90